createdAt,value
2018-09-04T00:00:37.953Z,82.94
2018-09-04T00:01:37.921Z,83.04
2018-09-04T00:02:37.883Z,82.37
2018-09-04T00:03:37.816Z,82.18
2018-09-04T00:04:37.777Z,82.37
2018-09-04T00:05:37.727Z,82.37
2018-09-04T00:06:37.677Z,82.18
2018-09-04T00:07:37.636Z,82.27
2018-09-04T00:08:37.584Z,82.08
2018-09-04T00:09:37.537Z,82.37
2018-09-04T00:10:37.486Z,82.18
2018-09-04T00:11:37.440Z,82.18
2018-09-04T00:12:37.393Z,82.46
2018-09-04T00:13:37.345Z,82.27
2018-09-04T00:14:37.301Z,82.56
2018-09-04T00:15:37.254Z,82.56
2018-09-04T00:16:37.212Z,82.18
2018-09-04T00:17:37.149Z,82.46
2018-09-04T00:18:37.100Z,82.46
2018-09-04T00:19:37.041Z,82.27
2018-09-04T00:20:37.015Z,82.18
2018-09-04T00:21:36.969Z,82.37
2018-09-04T00:22:36.925Z,82.37
2018-09-04T00:23:36.870Z,82.37
2018-09-04T00:24:36.869Z,82.14
2018-09-04T00:25:36.774Z,82.46
2018-09-04T00:26:36.727Z,82.14
2018-09-04T00:27:36.676Z,82.14
2018-09-04T00:28:36.632Z,82.14
2018-09-04T00:29:36.584Z,81.85
2018-09-04T00:30:36.534Z,82.32
2018-09-04T00:31:36.483Z,82.32
2018-09-04T00:32:36.434Z,82.14
2018-09-04T00:33:36.388Z,81.27
2018-09-04T00:34:36.342Z,81.85
2018-09-04T00:35:36.298Z,81.27
2018-09-04T00:36:36.237Z,81.66
2018-09-04T00:37:36.193Z,81.18
2018-09-04T00:38:36.147Z,81.18
2018-09-04T00:39:36.104Z,81.27
2018-09-04T00:40:36.064Z,81.56
2018-09-04T00:41:36.011Z,81.18
2018-09-04T00:42:35.964Z,80.70
2018-09-04T00:43:35.907Z,80.22
2018-09-04T00:44:35.861Z,81.04
2018-09-04T00:45:35.812Z,80.79
2018-09-04T00:46:35.747Z,80.41
2018-09-04T00:47:35.709Z,80.41
2018-09-04T00:48:35.661Z,79.83
2018-09-04T00:49:35.603Z,80.22
2018-09-04T00:50:35.571Z,79.93
2018-09-04T00:51:35.520Z,80.41
2018-09-04T00:52:35.486Z,79.93
2018-09-04T00:53:35.422Z,80.32
2018-09-04T00:54:35.368Z,80.22
2018-09-04T00:55:35.346Z,79.55
2018-09-04T00:56:35.276Z,79.93
2018-09-04T00:57:35.239Z,79.64
2018-09-04T00:58:35.188Z,79.45
2018-09-04T00:59:35.136Z,79.64
2018-09-04T01:00:35.090Z,78.97
2018-09-04T01:01:35.054Z,78.78
2018-09-04T01:02:34.998Z,78.78
2018-09-04T01:03:34.947Z,78.20
2018-09-04T01:04:34.900Z,78.17
2018-09-04T01:05:34.858Z,78.45
2018-09-04T01:06:34.784Z,78.55
2018-09-04T01:07:34.756Z,78.84
2018-09-04T01:08:34.699Z,78.64
2018-09-04T01:09:34.659Z,78.93
2018-09-04T01:10:34.606Z,78.07
2018-09-04T01:11:34.549Z,78.07
2018-09-04T01:12:34.501Z,78.93
2018-09-04T01:13:34.471Z,79.22
2018-09-04T01:14:34.422Z,79.03
2018-09-04T01:15:34.379Z,78.93
2018-09-04T01:16:34.311Z,78.74
2018-09-04T01:17:34.273Z,78.93
2018-09-04T01:18:34.223Z,78.36
2018-09-04T01:19:34.166Z,78.93
2018-09-04T01:20:34.128Z,79.03
2018-09-04T01:21:34.078Z,78.74
2018-09-04T01:22:34.029Z,78.07
2018-09-04T01:23:33.986Z,77.69
2018-09-04T01:24:33.937Z,77.78
2018-09-04T01:25:33.871Z,78.07
2018-09-04T01:26:33.838Z,77.88
2018-09-04T01:27:33.796Z,77.88
2018-09-04T01:28:33.739Z,77.69
2018-09-04T01:29:33.700Z,77.69
2018-09-04T01:30:33.654Z,77.78
2018-09-04T01:31:33.593Z,78.17
2018-09-04T01:32:33.540Z,78.36
2018-09-04T01:33:33.500Z,78.93
2018-09-04T01:34:33.454Z,79.85
2018-09-04T01:35:33.402Z,79.89
2018-09-04T01:36:33.363Z,79.80
2018-09-04T01:37:33.304Z,79.32
2018-09-04T01:38:33.266Z,80.18
2018-09-04T01:39:33.214Z,79.89
2018-09-04T01:40:33.158Z,80.37
2018-09-04T01:41:33.109Z,79.95
2018-09-04T01:42:33.066Z,80.52
2018-09-04T01:43:33.010Z,81.10
2018-09-04T01:44:32.969Z,80.62
2018-09-04T01:45:32.919Z,81.29
2018-09-04T01:46:32.890Z,81.10
2018-09-04T01:47:32.825Z,81.48
2018-09-04T01:48:32.774Z,81.29
2018-09-04T01:49:32.722Z,81.10
2018-09-04T01:50:32.679Z,81.20
2018-09-04T01:51:32.631Z,81.00
2018-09-04T01:52:32.579Z,80.81
2018-09-04T01:53:32.550Z,81.00
2018-09-04T01:54:32.488Z,81.10
2018-09-04T01:55:32.438Z,80.62
2018-09-04T01:56:32.390Z,81.20
2018-09-04T01:57:32.350Z,80.43
2018-09-04T01:58:32.297Z,80.52
2018-09-04T01:59:32.245Z,81.48
2018-09-04T02:00:32.212Z,81.38
2018-09-04T02:01:32.146Z,80.71
2018-09-04T02:02:32.092Z,81.00
2018-09-04T02:03:32.050Z,81.05
2018-09-04T02:04:31.988Z,81.15
2018-09-04T02:05:31.952Z,81.63
2018-09-04T02:06:31.905Z,81.57
2018-09-04T02:07:31.860Z,81.44
2018-09-04T02:08:31.812Z,81.38
2018-09-04T02:09:31.757Z,80.87
2018-09-04T02:10:31.694Z,81.73
2018-09-04T02:11:31.653Z,81.63
2018-09-04T02:12:31.629Z,82.49
2018-09-04T02:13:31.553Z,81.73
2018-09-04T02:14:31.514Z,82.01
2018-09-04T02:15:31.475Z,82.01
2018-09-04T02:16:31.423Z,82.30
2018-09-04T02:17:31.362Z,82.87
2018-09-04T02:18:31.323Z,82.49
2018-09-04T02:19:31.277Z,83.06
2018-09-04T02:20:31.226Z,82.78
2018-09-04T02:21:31.167Z,82.78
2018-09-04T02:22:31.118Z,83.36
2018-09-04T02:23:31.075Z,82.97
2018-09-04T02:24:31.022Z,83.06
2018-09-04T02:25:30.990Z,82.97
2018-09-04T02:26:30.928Z,82.49
2018-09-04T02:27:30.881Z,82.20
2018-09-04T02:28:30.815Z,82.68
2018-09-04T02:29:30.786Z,82.30
2018-09-04T02:30:30.738Z,82.78
2018-09-04T02:31:30.693Z,82.40
2018-09-04T02:32:30.638Z,82.97
2018-09-04T02:33:30.571Z,83.54
2018-09-04T02:34:30.532Z,84.31
2018-09-04T02:35:30.490Z,84.17
2018-09-04T02:36:30.431Z,84.17
2018-09-04T02:37:30.392Z,84.36
2018-09-04T02:38:30.350Z,84.36
2018-09-04T02:39:30.295Z,84.59
2018-09-04T02:40:30.245Z,84.46
2018-09-04T02:41:30.197Z,84.84
2018-09-04T02:42:30.149Z,85.03
2018-09-04T02:43:30.105Z,85.13
2018-09-04T02:44:30.051Z,84.98
2018-09-04T02:45:29.991Z,84.75
2018-09-04T02:46:29.940Z,84.84
2018-09-04T02:47:29.907Z,84.75
2018-09-04T02:48:29.850Z,84.22
2018-09-04T02:49:29.806Z,84.36
2018-09-04T02:50:29.757Z,84.84
2018-09-04T02:51:29.706Z,84.94
2018-09-04T02:52:29.653Z,84.75
2018-09-04T02:53:29.617Z,85.13
2018-09-04T02:54:29.555Z,85.32
2018-09-04T02:55:29.510Z,85.51
2018-09-04T02:56:29.463Z,85.80
2018-09-04T02:57:29.410Z,86.28
2018-09-04T02:58:29.365Z,85.80
2018-09-04T02:59:29.316Z,85.71
2018-09-04T03:00:29.276Z,85.61
2018-09-04T03:01:29.217Z,85.61
2018-09-04T03:02:29.169Z,85.89
2018-09-04T03:03:29.121Z,85.99
2018-09-04T03:04:29.071Z,86.18
2018-09-04T03:05:29.038Z,86.37
2018-09-04T03:06:28.972Z,85.99
2018-09-04T03:07:28.918Z,85.61
2018-09-04T03:08:28.875Z,85.22
2018-09-04T03:09:28.827Z,85.41
2018-09-04T03:10:28.785Z,84.65
2018-09-04T03:11:28.879Z,84.84
2018-09-04T03:12:28.671Z,84.84
2018-09-04T03:13:28.675Z,85.61
2018-09-04T03:14:28.579Z,85.51
2018-09-04T03:15:28.533Z,85.80
2018-09-04T03:16:28.478Z,85.41
2018-09-04T03:17:28.428Z,85.32
2018-09-04T03:18:28.384Z,85.13
2018-09-04T03:19:28.336Z,84.94
2018-09-04T03:20:28.286Z,84.94
2018-09-04T03:21:28.238Z,84.94
2018-09-04T03:22:28.191Z,84.94
2018-09-04T03:23:28.135Z,84.94
2018-09-04T03:24:28.088Z,85.41
2018-09-04T03:25:28.038Z,85.51
2018-09-04T03:26:27.990Z,85.22
2018-09-04T03:27:27.950Z,85.32
2018-09-04T03:28:27.896Z,85.61
2018-09-04T03:29:27.840Z,85.41
2018-09-04T03:30:27.800Z,85.22
2018-09-04T03:31:27.740Z,85.61
2018-09-04T03:32:27.702Z,85.32
2018-09-04T03:33:27.644Z,85.61
2018-09-04T03:34:27.601Z,85.32
2018-09-04T03:35:27.549Z,85.41
2018-09-04T03:36:27.499Z,85.41
2018-09-04T03:37:27.455Z,86.18
2018-09-04T03:38:27.406Z,86.08
2018-09-04T03:39:27.354Z,85.80
2018-09-04T03:40:27.317Z,86.08
2018-09-04T03:41:27.251Z,86.28
2018-09-04T03:42:27.285Z,85.89
2018-09-04T03:43:27.159Z,85.03
2018-09-04T03:44:27.233Z,85.71
2018-09-04T03:45:27.061Z,85.80
2018-09-04T03:46:27.016Z,85.41
2018-09-04T03:47:26.968Z,85.61
2018-09-04T03:48:26.918Z,85.71
2018-09-04T03:49:26.876Z,86.04
2018-09-04T03:50:26.808Z,86.14
2018-09-04T03:51:26.771Z,86.04
2018-09-04T03:52:26.908Z,86.47
2018-09-04T03:53:26.673Z,86.43
2018-09-04T03:54:26.623Z,86.47
2018-09-04T03:55:26.571Z,86.90
2018-09-04T03:56:26.521Z,86.43
2018-09-04T03:57:26.479Z,86.57
2018-09-04T03:58:26.427Z,86.57
2018-09-04T03:59:26.359Z,85.89
2018-09-04T04:00:26.321Z,85.99
2018-09-04T04:01:26.367Z,86.28
2018-09-04T04:02:26.244Z,86.08
2018-09-04T04:03:26.179Z,86.61
2018-09-04T04:04:26.120Z,86.47
2018-09-04T04:05:26.064Z,86.90
2018-09-04T04:06:26.043Z,86.43
2018-09-04T04:07:25.986Z,86.28
2018-09-04T04:08:25.926Z,86.71
2018-09-04T04:09:25.885Z,86.52
2018-09-04T04:10:25.828Z,86.94
2018-09-04T04:11:25.778Z,87.23
2018-09-04T04:12:25.734Z,86.71
2018-09-04T04:13:25.693Z,87.57
2018-09-04T04:14:25.635Z,86.94
2018-09-04T04:15:25.592Z,87.57
2018-09-04T04:16:25.521Z,87.48
2018-09-04T04:17:25.485Z,87.57
2018-09-04T04:18:25.437Z,87.57
2018-09-04T04:19:25.401Z,87.86
2018-09-04T04:20:25.352Z,87.19
2018-09-04T04:21:25.285Z,86.94
2018-09-04T04:22:25.252Z,86.85
2018-09-04T04:23:25.179Z,86.37
2018-09-04T04:24:25.141Z,87.00
2018-09-04T04:25:25.099Z,86.90
2018-09-04T04:26:25.044Z,86.94
2018-09-04T04:27:25.000Z,87.23
2018-09-04T04:28:24.942Z,87.04
2018-09-04T04:29:24.902Z,87.29
2018-09-04T04:30:24.859Z,87.57
2018-09-04T04:31:24.797Z,87.29
2018-09-04T04:32:24.753Z,87.86
2018-09-04T04:33:24.704Z,87.57
2018-09-04T04:34:24.637Z,87.57
2018-09-04T04:35:24.603Z,87.86
2018-09-04T04:36:24.566Z,87.66
2018-09-04T04:37:24.505Z,87.19
2018-09-04T04:38:24.456Z,87.66
2018-09-04T04:39:24.408Z,87.57
2018-09-04T04:40:24.364Z,87.57
2018-09-04T04:41:24.316Z,87.38
2018-09-04T04:42:24.259Z,88.05
2018-09-04T04:43:24.194Z,88.53
2018-09-04T04:44:24.162Z,88.43
2018-09-04T04:45:24.111Z,88.72
2018-09-04T04:46:24.055Z,88.43
2018-09-04T04:47:24.014Z,88.24
2018-09-04T04:48:23.982Z,88.53
2018-09-04T04:49:23.904Z,88.77
2018-09-04T04:50:23.868Z,89.44
2018-09-04T04:51:23.820Z,89.06
2018-09-04T04:52:23.769Z,89.25
2018-09-04T04:53:23.717Z,89.06
2018-09-04T04:54:23.674Z,88.96
2018-09-04T04:55:23.616Z,89.15
2018-09-04T04:56:23.569Z,89.34
2018-09-04T04:57:23.519Z,89.06
2018-09-04T04:58:23.475Z,90.11
2018-09-04T04:59:23.420Z,89.63
2018-09-04T05:00:23.493Z,89.67
2018-09-04T05:01:23.329Z,89.82
2018-09-04T05:02:23.278Z,89.53
2018-09-04T05:03:23.217Z,89.63
2018-09-04T05:04:23.161Z,89.58
2018-09-04T05:05:23.127Z,89.10
2018-09-04T05:06:23.076Z,89.29
2018-09-04T05:07:23.046Z,89.10
2018-09-04T05:08:22.974Z,89.06
2018-09-04T05:09:22.926Z,89.29
2018-09-04T05:10:22.868Z,89.53
2018-09-04T05:11:22.875Z,89.82
2018-09-04T05:12:22.789Z,89.63
2018-09-04T05:13:22.725Z,89.63
2018-09-04T05:14:22.691Z,89.53
2018-09-04T05:15:22.625Z,89.73
2018-09-04T05:16:22.581Z,90.01
2018-09-04T05:17:22.531Z,90.01
2018-09-04T05:18:22.482Z,90.49
2018-09-04T05:19:22.424Z,90.78
2018-09-04T05:20:22.383Z,90.78
2018-09-04T05:21:22.329Z,90.68
2018-09-04T05:22:22.277Z,90.20
2018-09-04T05:23:22.220Z,90.88
2018-09-04T05:24:22.179Z,90.88
2018-09-04T05:25:22.135Z,90.20
2018-09-04T05:26:22.091Z,90.49
2018-09-04T05:27:22.030Z,90.39
2018-09-04T05:28:21.987Z,90.30
2018-09-04T05:29:22.013Z,89.73
2018-09-04T05:30:21.894Z,90.06
2018-09-04T05:31:21.842Z,90.16
2018-09-04T05:32:21.787Z,89.87
2018-09-04T05:33:21.764Z,89.29
2018-09-04T05:34:21.694Z,88.72
2018-09-04T05:35:21.644Z,88.43
2018-09-04T05:36:21.603Z,88.53
2018-09-04T05:37:21.543Z,87.95
2018-09-04T05:38:21.477Z,87.57
2018-09-04T05:39:21.437Z,87.57
2018-09-04T05:40:21.395Z,87.76
2018-09-04T05:41:21.334Z,87.66
2018-09-04T05:42:21.302Z,87.48
2018-09-04T05:43:21.246Z,87.48
2018-09-04T05:44:21.201Z,88.43
2018-09-04T05:45:21.150Z,87.86
2018-09-04T05:46:21.098Z,87.57
2018-09-04T05:47:21.058Z,87.57
2018-09-04T05:48:21.009Z,87.66
2018-09-04T05:49:20.951Z,87.76
2018-09-04T05:50:20.913Z,87.57
2018-09-04T05:51:20.841Z,87.57
2018-09-04T05:52:20.805Z,87.48
2018-09-04T05:53:20.753Z,87.48
2018-09-04T05:54:20.705Z,87.86
2018-09-04T05:55:20.746Z,87.57
2018-09-04T05:56:20.604Z,87.91
2018-09-04T05:57:20.562Z,87.66
2018-09-04T05:58:20.504Z,87.24
2018-09-04T05:59:20.452Z,87.62
2018-09-04T06:00:20.410Z,87.72
2018-09-04T06:01:20.364Z,87.43
2018-09-04T06:02:20.295Z,87.57
2018-09-04T06:03:20.262Z,87.34
2018-09-04T06:04:20.206Z,88.20
2018-09-04T06:05:20.147Z,87.91
2018-09-04T06:06:20.111Z,88.10
2018-09-04T06:07:20.065Z,88.39
2018-09-04T06:08:20.008Z,88.29
2018-09-04T06:09:19.959Z,88.10
2018-09-04T06:10:19.913Z,88.39
2018-09-04T06:11:19.862Z,88.29
2018-09-04T06:12:19.799Z,88.48
2018-09-04T06:13:19.765Z,88.96
2018-09-04T06:14:19.729Z,88.77
2018-09-04T06:15:19.678Z,88.48
2018-09-04T06:16:19.617Z,88.48
2018-09-04T06:17:19.567Z,88.29
2018-09-04T06:18:19.516Z,88.68
2018-09-04T06:19:19.466Z,88.39
2018-09-04T06:20:19.407Z,88.10
2018-09-04T06:21:19.386Z,88.10
2018-09-04T06:22:19.318Z,88.29
2018-09-04T06:23:19.271Z,88.58
2018-09-04T06:24:19.221Z,88.87
2018-09-04T06:25:19.156Z,88.48
2018-09-04T06:26:19.103Z,89.15
2018-09-04T06:27:19.073Z,89.15
2018-09-04T06:28:19.024Z,88.87
2018-09-04T06:29:18.981Z,89.15
2018-09-04T06:30:18.913Z,89.06
2018-09-04T06:31:18.869Z,89.63
2018-09-04T06:32:18.828Z,90.01
2018-09-04T06:33:18.777Z,89.82
2018-09-04T06:34:18.728Z,90.39
2018-09-04T06:35:18.667Z,90.01
2018-09-04T06:36:18.631Z,90.01
2018-09-04T06:37:18.578Z,89.53
2018-09-04T06:38:18.537Z,89.44
2018-09-04T06:39:18.478Z,89.73
2018-09-04T06:40:18.426Z,88.87
2018-09-04T06:41:18.380Z,89.25
2018-09-04T06:42:18.345Z,89.06
2018-09-04T06:43:18.290Z,88.87
2018-09-04T06:44:18.225Z,89.92
2018-09-04T06:45:18.182Z,89.25
2018-09-04T06:46:18.132Z,89.73
2018-09-04T06:47:18.084Z,90.11
2018-09-04T06:48:18.041Z,89.82
2018-09-04T06:49:17.988Z,88.96
2018-09-04T06:50:17.933Z,89.06
2018-09-04T06:51:17.882Z,89.10
2018-09-04T06:52:17.841Z,89.25
2018-09-04T06:53:17.782Z,89.44
2018-09-04T06:54:17.737Z,89.73
2018-09-04T06:55:17.683Z,89.06
2018-09-04T06:56:17.640Z,89.06
2018-09-04T06:57:17.581Z,89.44
2018-09-04T06:58:17.540Z,89.25
2018-09-04T06:59:17.490Z,89.73
2018-09-04T07:00:17.438Z,90.01
2018-09-04T07:01:17.395Z,89.06
2018-09-04T07:02:17.343Z,89.82
2018-09-04T07:03:17.303Z,89.73
2018-09-04T07:04:17.239Z,89.06
2018-09-04T07:05:17.202Z,88.87
2018-09-04T07:06:17.131Z,89.25
2018-09-04T07:07:17.097Z,88.48
2018-09-04T07:08:17.057Z,88.77
2018-09-04T07:09:16.993Z,88.48
2018-09-04T07:10:16.943Z,89.15
2018-09-04T07:11:16.895Z,89.34
2018-09-04T07:12:16.837Z,88.10
2018-09-04T07:13:16.795Z,89.06
2018-09-04T07:14:16.732Z,89.15
2018-09-04T07:15:16.717Z,88.58
2018-09-04T07:16:16.649Z,88.29
2018-09-04T07:17:16.603Z,88.87
2018-09-04T07:18:16.547Z,89.06
2018-09-04T07:19:16.497Z,89.06
2018-09-04T07:20:16.457Z,88.87
2018-09-04T07:21:16.398Z,89.15
2018-09-04T07:22:16.359Z,88.58
2018-09-04T07:23:16.301Z,88.48
2018-09-04T07:24:16.323Z,88.87
2018-09-04T07:25:16.210Z,88.68
2018-09-04T07:26:16.138Z,88.48
2018-09-04T07:27:16.103Z,88.39
2018-09-04T07:28:16.080Z,88.39
2018-09-04T07:29:16.011Z,88.77
2018-09-04T07:30:15.962Z,88.77
2018-09-04T07:31:15.906Z,89.15
2018-09-04T07:32:15.861Z,89.06
2018-09-04T07:33:15.806Z,89.25
2018-09-04T07:34:15.743Z,89.06
2018-09-04T07:35:15.707Z,89.15
2018-09-04T07:36:15.676Z,88.48
2018-09-04T07:37:15.606Z,88.39
2018-09-04T07:38:15.571Z,88.29
2018-09-04T07:39:15.514Z,88.39
2018-09-04T07:40:15.444Z,87.91
2018-09-04T07:41:15.416Z,88.29
2018-09-04T07:42:15.367Z,88.01
2018-09-04T07:43:15.313Z,87.91
2018-09-04T07:44:15.258Z,88.39
2018-09-04T07:45:15.209Z,87.53
2018-09-04T07:46:15.161Z,87.24
2018-09-04T07:47:15.114Z,87.72
2018-09-04T07:48:15.067Z,87.62
2018-09-04T07:49:15.026Z,87.82
2018-09-04T07:50:14.971Z,88.20
2018-09-04T07:51:14.906Z,88.20
2018-09-04T07:52:14.868Z,88.68
2018-09-04T07:53:14.821Z,88.10
2018-09-04T07:54:14.772Z,87.53
2018-09-04T07:55:14.725Z,87.53
2018-09-04T07:56:14.672Z,87.82
2018-09-04T07:57:14.608Z,87.15
2018-09-04T07:58:14.576Z,87.43
2018-09-04T07:59:14.522Z,86.80
2018-09-04T08:00:14.484Z,86.29
2018-09-04T08:01:14.433Z,86.76
2018-09-04T08:02:14.377Z,87.43
2018-09-04T08:03:14.315Z,87.24
2018-09-04T08:04:14.288Z,87.62
2018-09-04T08:05:14.237Z,87.43
2018-09-04T08:06:14.178Z,87.53
2018-09-04T08:07:14.125Z,87.15
2018-09-04T08:08:14.083Z,87.15
2018-09-04T08:09:14.026Z,87.72
2018-09-04T08:10:14.073Z,87.53
2018-09-04T08:11:13.934Z,87.34
2018-09-04T08:12:13.888Z,87.91
2018-09-04T08:13:13.833Z,87.91
2018-09-04T08:14:13.788Z,88.01
2018-09-04T08:15:13.724Z,88.29
2018-09-04T08:16:13.762Z,88.01
2018-09-04T08:17:13.648Z,88.58
2018-09-04T08:18:13.590Z,88.20
2018-09-04T08:19:13.532Z,88.20
2018-09-04T08:20:13.500Z,88.39
2018-09-04T08:21:13.455Z,88.29
2018-09-04T08:22:13.391Z,88.39
2018-09-04T08:23:13.325Z,88.68
2018-09-04T08:24:13.287Z,88.58
2018-09-04T08:25:13.247Z,88.20
2018-09-04T08:26:13.341Z,88.29
2018-09-04T08:27:13.137Z,88.48
2018-09-04T08:28:13.101Z,88.29
2018-09-04T08:29:13.045Z,88.20
2018-09-04T08:30:12.999Z,88.29
2018-09-04T08:31:12.947Z,88.29
2018-09-04T08:32:12.883Z,88.68
2018-09-04T08:33:12.938Z,88.48
2018-09-04T08:34:12.804Z,88.77
2018-09-04T08:35:12.741Z,88.48
2018-09-04T08:36:12.693Z,88.68
2018-09-04T08:37:12.645Z,88.20
2018-09-04T08:38:12.602Z,87.82
2018-09-04T08:39:12.552Z,87.91
2018-09-04T08:40:12.505Z,88.10
2018-09-04T08:41:12.456Z,87.91
2018-09-04T08:42:12.402Z,88.20
2018-09-04T08:43:12.359Z,88.39
2018-09-04T08:44:12.302Z,88.29
2018-09-04T08:45:12.253Z,88.48
2018-09-04T08:46:12.210Z,88.01
2018-09-04T08:47:12.225Z,88.77
2018-09-04T08:48:12.114Z,88.77
2018-09-04T08:49:12.055Z,88.77
2018-09-04T08:50:12.013Z,89.25
2018-09-04T08:51:11.966Z,89.06
2018-09-04T08:52:11.922Z,89.15
2018-09-04T08:53:11.877Z,88.96
2018-09-04T08:54:11.803Z,88.87
2018-09-04T08:55:11.812Z,89.25
2018-09-04T08:56:11.709Z,88.87
2018-09-04T08:57:11.662Z,89.06
2018-09-04T08:58:11.614Z,89.63
2018-09-04T08:59:11.563Z,89.92
2018-09-04T09:00:11.527Z,89.63
2018-09-04T09:01:11.466Z,90.01
2018-09-04T09:02:11.412Z,89.53
2018-09-04T09:03:11.365Z,89.73
2018-09-04T09:04:11.327Z,89.73
2018-09-04T09:05:11.279Z,89.63
2018-09-04T09:06:11.214Z,89.63
2018-09-04T09:07:11.155Z,89.25
2018-09-04T09:08:11.117Z,88.87
2018-09-04T09:09:11.070Z,89.15
2018-09-04T09:10:11.093Z,89.06
2018-09-04T09:11:10.979Z,89.15
2018-09-04T09:12:10.919Z,89.53
2018-09-04T09:13:10.870Z,89.53
2018-09-04T09:14:10.811Z,89.15
2018-09-04T09:15:10.773Z,89.06
2018-09-04T09:16:10.721Z,88.96
2018-09-04T09:17:10.656Z,88.87
2018-09-04T09:18:10.624Z,88.87
2018-09-04T09:19:10.570Z,89.06
2018-09-04T09:20:10.512Z,89.15
2018-09-04T09:21:10.474Z,89.15
2018-09-04T09:22:10.431Z,89.53
2018-09-04T09:23:10.358Z,89.15
2018-09-04T09:24:10.326Z,89.44
2018-09-04T09:25:10.277Z,89.06
2018-09-04T09:26:10.233Z,88.39
2018-09-04T09:27:10.183Z,88.48
2018-09-04T09:28:10.133Z,88.68
2018-09-04T09:29:10.075Z,88.87
2018-09-04T09:30:10.027Z,88.68
2018-09-04T09:31:09.983Z,88.77
2018-09-04T09:32:09.944Z,89.15
2018-09-04T09:33:09.886Z,89.25
2018-09-04T09:34:09.820Z,88.87
2018-09-04T09:35:09.802Z,89.34
2018-09-04T09:36:09.739Z,88.68
2018-09-04T09:37:09.755Z,89.06
2018-09-04T09:38:09.624Z,89.15
2018-09-04T09:39:09.600Z,88.48
2018-09-04T09:40:09.538Z,88.39
2018-09-04T09:41:09.474Z,88.87
2018-09-04T09:42:09.449Z,88.39
2018-09-04T09:43:09.397Z,88.77
2018-09-04T09:44:09.345Z,88.29
2018-09-04T09:45:09.305Z,88.10
2018-09-04T09:46:09.249Z,88.68
2018-09-04T09:47:09.198Z,88.68
2018-09-04T09:48:09.130Z,88.77
2018-09-04T09:49:09.099Z,88.77
2018-09-04T09:50:09.054Z,88.77
2018-09-04T09:51:08.997Z,88.48
2018-09-04T09:52:08.946Z,88.68
2018-09-04T09:53:09.057Z,88.96
2018-09-04T09:54:08.833Z,89.06
2018-09-04T09:55:08.812Z,89.44
2018-09-04T09:56:08.769Z,88.87
2018-09-04T09:57:08.693Z,89.25
2018-09-04T09:58:08.659Z,89.06
2018-09-04T09:59:08.607Z,89.25
2018-09-04T10:00:08.568Z,88.87
2018-09-04T10:01:08.634Z,89.06
2018-09-04T10:02:08.463Z,88.87
2018-09-04T10:03:08.438Z,89.15
2018-09-04T10:04:08.438Z,88.48
2018-09-04T10:05:08.319Z,89.06
2018-09-04T10:06:08.266Z,89.53
2018-09-04T10:07:08.214Z,88.62
2018-09-04T10:08:08.300Z,88.81
2018-09-04T10:09:08.117Z,88.34
2018-09-04T10:10:08.089Z,88.43
2018-09-04T10:11:08.140Z,88.15
2018-09-04T10:12:07.966Z,87.29
2018-09-04T10:13:07.921Z,87.86
2018-09-04T10:14:07.867Z,88.43
2018-09-04T10:15:07.831Z,87.86
2018-09-04T10:16:07.800Z,87.57
2018-09-04T10:17:07.724Z,87.72
2018-09-04T10:18:07.673Z,87.95
2018-09-04T10:19:07.625Z,87.57
2018-09-04T10:20:07.578Z,87.29
2018-09-04T10:21:07.528Z,87.57
2018-09-04T10:22:07.474Z,87.76
2018-09-04T10:23:07.429Z,88.15
2018-09-04T10:24:07.385Z,88.34
2018-09-04T10:25:07.336Z,88.43
2018-09-04T10:26:07.283Z,87.66
2018-09-04T10:27:07.238Z,87.48
2018-09-04T10:28:07.191Z,87.19
2018-09-04T10:29:07.132Z,87.19
2018-09-04T10:30:07.071Z,86.90
2018-09-04T10:31:07.023Z,86.43
2018-09-04T10:32:06.986Z,86.90
2018-09-04T10:33:06.939Z,87.19
2018-09-04T10:34:06.904Z,87.00
2018-09-04T10:35:06.871Z,87.19
2018-09-04T10:36:06.831Z,87.19
2018-09-04T10:37:06.743Z,87.76
2018-09-04T10:38:06.695Z,88.34
2018-09-04T10:39:06.645Z,87.86
2018-09-04T10:40:06.603Z,88.43
2018-09-04T10:41:06.538Z,87.57
2018-09-04T10:42:06.551Z,87.48
2018-09-04T10:43:06.460Z,87.57
2018-09-04T10:44:06.403Z,87.76
2018-09-04T10:45:06.355Z,87.57
2018-09-04T10:46:06.308Z,87.57
2018-09-04T10:47:06.255Z,87.66
2018-09-04T10:48:06.201Z,87.76
2018-09-04T10:49:06.158Z,87.29
2018-09-04T10:50:06.110Z,87.48
2018-09-04T10:51:06.062Z,87.48
2018-09-04T10:52:06.010Z,87.29
2018-09-04T10:53:05.956Z,87.33
2018-09-04T10:54:05.914Z,86.90
2018-09-04T10:55:05.873Z,86.80
2018-09-04T10:56:05.817Z,86.90
2018-09-04T10:57:05.770Z,87.00
2018-09-04T10:58:05.723Z,87.66
2018-09-04T10:59:05.666Z,87.00
2018-09-04T11:00:05.603Z,87.09
2018-09-04T11:01:05.565Z,86.37
2018-09-04T11:02:05.513Z,87.09
2018-09-04T11:03:05.474Z,86.94
2018-09-04T11:04:05.420Z,87.04
2018-09-04T11:05:05.376Z,87.14
2018-09-04T11:06:05.331Z,87.71
2018-09-04T11:07:05.276Z,87.76
2018-09-04T11:08:05.235Z,87.66
2018-09-04T11:09:05.207Z,87.48
2018-09-04T11:10:05.134Z,87.86
2018-09-04T11:11:05.088Z,87.48
2018-09-04T11:12:05.041Z,88.34
2018-09-04T11:13:04.987Z,88.15
2018-09-04T11:14:04.938Z,88.38
2018-09-04T11:15:04.876Z,88.19
2018-09-04T11:16:04.843Z,87.43
2018-09-04T11:17:04.792Z,87.90
2018-09-04T11:18:04.746Z,87.76
2018-09-04T11:19:04.720Z,87.29
2018-09-04T11:20:04.642Z,87.57
2018-09-04T11:21:04.598Z,87.71
2018-09-04T11:22:04.556Z,87.71
2018-09-04T11:23:04.491Z,87.62
2018-09-04T11:24:04.454Z,87.81
2018-09-04T11:25:04.391Z,87.71
2018-09-04T11:26:04.357Z,86.76
2018-09-04T11:27:04.313Z,86.66
2018-09-04T11:28:04.266Z,86.66
2018-09-04T11:29:04.196Z,86.18
2018-09-04T11:30:04.166Z,86.76
2018-09-04T11:31:04.114Z,86.28
2018-09-04T11:32:04.052Z,85.89
2018-09-04T11:33:04.021Z,85.36
2018-09-04T11:34:03.967Z,85.32
2018-09-04T11:35:03.935Z,85.03
2018-09-04T11:36:03.873Z,85.46
2018-09-04T11:37:03.827Z,86.04
2018-09-04T11:38:03.773Z,85.36
2018-09-04T11:39:03.753Z,85.36
2018-09-04T11:40:03.674Z,85.08
2018-09-04T11:41:03.615Z,84.84
2018-09-04T11:42:03.582Z,85.27
2018-09-04T11:43:03.534Z,84.84
2018-09-04T11:44:03.488Z,84.75
2018-09-04T11:45:03.435Z,84.75
2018-09-04T11:46:03.389Z,85.51
2018-09-04T11:47:03.426Z,85.61
2018-09-04T11:48:03.301Z,85.27
2018-09-04T11:49:03.240Z,85.17
2018-09-04T11:50:03.218Z,84.41
2018-09-04T11:51:03.168Z,84.12
2018-09-04T11:52:03.106Z,84.88
2018-09-04T11:53:03.066Z,84.41
2018-09-04T11:54:03.013Z,84.79
2018-09-04T11:55:02.962Z,84.12
2018-09-04T11:56:02.909Z,84.69
2018-09-04T11:57:02.861Z,83.83
2018-09-04T11:58:02.821Z,83.93
2018-09-04T11:59:02.767Z,83.26
2018-09-04T12:00:02.721Z,83.83
2018-09-04T12:01:02.669Z,84.12
2018-09-04T12:02:02.671Z,83.93
2018-09-04T12:03:02.580Z,84.31
2018-09-04T12:04:02.539Z,84.22
2018-09-04T12:05:02.483Z,84.45
2018-09-04T12:06:02.432Z,83.78
2018-09-04T12:07:02.384Z,83.68
2018-09-04T12:08:02.351Z,83.20
2018-09-04T12:09:02.289Z,83.78
2018-09-04T12:10:02.240Z,83.30
2018-09-04T12:11:02.194Z,82.82
2018-09-04T12:12:02.142Z,82.92
2018-09-04T12:13:02.099Z,83.39
2018-09-04T12:14:02.053Z,82.73
2018-09-04T12:15:01.985Z,82.48
2018-09-04T12:16:01.969Z,82.29
2018-09-04T12:17:01.919Z,82.19
2018-09-04T12:18:01.862Z,82.76
2018-09-04T12:19:01.895Z,81.62
2018-09-04T12:20:01.770Z,80.66
2018-09-04T12:21:01.861Z,80.47
2018-09-04T12:22:01.673Z,81.23
2018-09-04T12:23:01.623Z,80.47
2018-09-04T12:24:01.577Z,80.18
2018-09-04T12:25:01.554Z,80.56
2018-09-04T12:26:01.475Z,80.56
2018-09-04T12:27:01.458Z,81.23
2018-09-04T12:28:01.393Z,80.76
2018-09-04T12:29:01.339Z,81.71
2018-09-04T12:30:01.295Z,81.13
2018-09-04T12:31:01.244Z,81.23
2018-09-04T12:32:01.195Z,81.62
2018-09-04T12:33:01.144Z,80.85
2018-09-04T12:34:01.109Z,81.23
2018-09-04T12:35:01.054Z,80.56
2018-09-04T12:36:00.998Z,81.43
2018-09-04T12:37:00.966Z,80.76
2018-09-04T12:38:00.929Z,80.94
2018-09-04T12:39:00.860Z,80.85
2018-09-04T12:40:00.817Z,80.56
2018-09-04T12:41:00.787Z,79.60
2018-09-04T12:42:00.719Z,80.22
2018-09-04T12:43:00.674Z,78.97
2018-09-04T12:44:00.626Z,78.88
2018-09-04T12:45:00.592Z,78.69
2018-09-04T12:46:00.545Z,78.20
2018-09-04T12:47:00.511Z,78.69
2018-09-04T12:48:00.471Z,79.45
2018-09-04T12:49:00.409Z,78.49
2018-09-04T12:50:00.344Z,78.34
2018-09-04T12:51:00.304Z,78.15
2018-09-04T12:52:00.258Z,78.02